sensor_id;sensor_type;location;lat;lon;timestamp;P1;durP1;ratioP1;P2;durP2;ratioP2
73632;SDS011;61927;50.080;14.418;2022-07-24T00:00:48;15.13;;;9.27;;
73632;SDS011;61927;50.080;14.418;2022-07-24T00:03:14;10.75;;;8.98;;
73632;SDS011;61927;50.080;14.418;2022-07-24T00:05:40;15.02;;;9.55;;
73632;SDS011;61927;50.080;14.418;2022-07-24T00:08:05;19.65;;;10.27;;
73632;SDS011;61927;50.080;14.418;2022-07-24T00:10:30;15.90;;;9.85;;
73632;SDS011;61927;50.080;14.418;2022-07-24T00:12:56;28.67;;;21.10;;
73632;SDS011;61927;50.080;14.418;2022-07-24T00:15:22;63.78;;;37.47;;
73632;SDS011;61927;50.080;14.418;2022-07-24T00:17:47;16.80;;;10.30;;
73632;SDS011;61927;50.080;14.418;2022-07-24T00:20:13;15.38;;;9.55;;
73632;SDS011;61927;50.080;14.418;2022-07-24T00:22:38;16.35;;;9.38;;
73632;SDS011;61927;50.080;14.418;2022-07-24T00:25:04;15.68;;;9.43;;
73632;SDS011;61927;50.080;14.418;2022-07-24T00:27:30;12.48;;;8.88;;
73632;SDS011;61927;50.080;14.418;2022-07-24T00:29:55;14.70;;;9.13;;
73632;SDS011;61927;50.080;14.418;2022-07-24T00:32:21;11.57;;;8.90;;
73632;SDS011;61927;50.080;14.418;2022-07-24T00:34:46;12.23;;;9.23;;
73632;SDS011;61927;50.080;14.418;2022-07-24T00:37:12;16.85;;;9.13;;
73632;SDS011;61927;50.080;14.418;2022-07-24T00:39:38;15.25;;;9.45;;
73632;SDS011;61927;50.080;14.418;2022-07-24T00:42:03;14.18;;;9.85;;
73632;SDS011;61927;50.080;14.418;2022-07-24T00:44:29;20.10;;;10.63;;
73632;SDS011;61927;50.080;14.418;2022-07-24T00:46:54;16.65;;;9.52;;
73632;SDS011;61927;50.080;14.418;2022-07-24T00:49:20;14.32;;;9.63;;
73632;SDS011;61927;50.080;14.418;2022-07-24T00:51:47;16.98;;;10.00;;
73632;SDS011;61927;50.080;14.418;2022-07-24T00:54:14;17.73;;;10.30;;
73632;SDS011;61927;50.080;14.418;2022-07-24T00:56:41;17.55;;;10.27;;
73632;SDS011;61927;50.080;14.418;2022-07-24T00:59:09;18.80;;;10.77;;
73632;SDS011;61927;50.080;14.418;2022-07-24T01:01:35;18.48;;;10.50;;
73632;SDS011;61927;50.080;14.418;2022-07-24T01:04:01;19.23;;;10.30;;
73632;SDS011;61927;50.080;14.418;2022-07-24T01:06:27;14.98;;;9.85;;
73632;SDS011;61927;50.080;14.418;2022-07-24T01:08:52;16.38;;;9.98;;
73632;SDS011;61927;50.080;14.418;2022-07-24T01:11:19;12.10;;;9.52;;
73632;SDS011;61927;50.080;14.418;2022-07-24T01:13:46;11.82;;;9.25;;
73632;SDS011;61927;50.080;14.418;2022-07-24T01:16:12;10.70;;;9.35;;
73632;SDS011;61927;50.080;14.418;2022-07-24T01:18:38;22.02;;;9.88;;
73632;SDS011;61927;50.080;14.418;2022-07-24T01:21:04;16.92;;;9.70;;
73632;SDS011;61927;50.080;14.418;2022-07-24T01:23:31;12.27;;;9.68;;
73632;SDS011;61927;50.080;14.418;2022-07-24T01:25:57;17.65;;;10.10;;
73632;SDS011;61927;50.080;14.418;2022-07-24T01:28:22;19.35;;;9.20;;
73632;SDS011;61927;50.080;14.418;2022-07-24T01:30:48;17.85;;;10.15;;
73632;SDS011;61927;50.080;14.418;2022-07-24T01:33:14;15.80;;;10.35;;
73632;SDS011;61927;50.080;14.418;2022-07-24T01:35:40;14.40;;;10.10;;
73632;SDS011;61927;50.080;14.418;2022-07-24T01:38:06;15.57;;;9.48;;
73632;SDS011;61927;50.080;14.418;2022-07-24T01:40:32;13.50;;;9.20;;
73632;SDS011;61927;50.080;14.418;2022-07-24T01:42:58;12.77;;;10.02;;
73632;SDS011;61927;50.080;14.418;2022-07-24T01:45:23;10.70;;;9.52;;
73632;SDS011;61927;50.080;14.418;2022-07-24T01:47:49;15.73;;;10.50;;
73632;SDS011;61927;50.080;14.418;2022-07-24T01:50:15;13.45;;;10.02;;
73632;SDS011;61927;50.080;14.418;2022-07-24T01:52:41;15.32;;;10.43;;
73632;SDS011;61927;50.080;14.418;2022-07-24T01:55:07;16.05;;;10.55;;
73632;SDS011;61927;50.080;14.418;2022-07-24T01:57:33;15.88;;;9.80;;
73632;SDS011;61927;50.080;14.418;2022-07-24T01:59:59;15.85;;;10.07;;
73632;SDS011;61927;50.080;14.418;2022-07-24T02:02:25;16.60;;;10.15;;
73632;SDS011;61927;50.080;14.418;2022-07-24T02:04:51;12.88;;;9.63;;
73632;SDS011;61927;50.080;14.418;2022-07-24T02:07:17;18.42;;;10.38;;
73632;SDS011;61927;50.080;14.418;2022-07-24T02:09:42;16.98;;;10.50;;
73632;SDS011;61927;50.080;14.418;2022-07-24T02:12:08;16.40;;;10.27;;
73632;SDS011;61927;50.080;14.418;2022-07-24T02:14:33;15.95;;;9.63;;
73632;SDS011;61927;50.080;14.418;2022-07-24T02:16:59;13.00;;;9.77;;
73632;SDS011;61927;50.080;14.418;2022-07-24T02:19:25;12.52;;;9.27;;
73632;SDS011;61927;50.080;14.418;2022-07-24T02:21:50;15.30;;;9.93;;
73632;SDS011;61927;50.080;14.418;2022-07-24T02:24:16;15.32;;;9.52;;
73632;SDS011;61927;50.080;14.418;2022-07-24T02:26:41;18.98;;;9.60;;
73632;SDS011;61927;50.080;14.418;2022-07-24T02:29:07;20.67;;;10.75;;
73632;SDS011;61927;50.080;14.418;2022-07-24T02:31:33;13.73;;;10.10;;
73632;SDS011;61927;50.080;14.418;2022-07-24T02:33:59;15.60;;;9.68;;
73632;SDS011;61927;50.080;14.418;2022-07-24T02:36:25;11.88;;;9.45;;
73632;SDS011;61927;50.080;14.418;2022-07-24T02:38:51;12.02;;;10.40;;
73632;SDS011;61927;50.080;14.418;2022-07-24T02:41:17;13.45;;;10.20;;
73632;SDS011;61927;50.080;14.418;2022-07-24T02:43:43;20.08;;;10.93;;
73632;SDS011;61927;50.080;14.418;2022-07-24T02:46:08;14.15;;;9.93;;
73632;SDS011;61927;50.080;14.418;2022-07-24T02:48:34;14.57;;;11.57;;
73632;SDS011;61927;50.080;14.418;2022-07-24T02:50:59;15.85;;;11.00;;
73632;SDS011;61927;50.080;14.418;2022-07-24T02:53:25;19.33;;;10.63;;
73632;SDS011;61927;50.080;14.418;2022-07-24T02:55:50;20.55;;;11.25;;
73632;SDS011;61927;50.080;14.418;2022-07-24T02:58:16;16.20;;;11.38;;
73632;SDS011;61927;50.080;14.418;2022-07-24T03:00:41;23.67;;;17.60;;
73632;SDS011;61927;50.080;14.418;2022-07-24T03:03:07;15.07;;;10.48;;
73632;SDS011;61927;50.080;14.418;2022-07-24T03:05:33;17.23;;;11.35;;
73632;SDS011;61927;50.080;14.418;2022-07-24T03:07:58;14.35;;;10.50;;
73632;SDS011;61927;50.080;14.418;2022-07-24T03:10:24;16.75;;;9.85;;
73632;SDS011;61927;50.080;14.418;2022-07-24T03:12:49;16.75;;;10.82;;
73632;SDS011;61927;50.080;14.418;2022-07-24T03:15:15;13.82;;;9.75;;
73632;SDS011;61927;50.080;14.418;2022-07-24T03:17:54;17.70;;;10.82;;
73632;SDS011;61927;50.080;14.418;2022-07-24T03:20:21;16.75;;;10.93;;
73632;SDS011;61927;50.080;14.418;2022-07-24T03:22:48;13.70;;;9.85;;
73632;SDS011;61927;50.080;14.418;2022-07-24T03:25:14;15.25;;;10.63;;
73632;SDS011;61927;50.080;14.418;2022-07-24T03:27:40;17.38;;;10.90;;
73632;SDS011;61927;50.080;14.418;2022-07-24T03:30:06;13.25;;;11.02;;
73632;SDS011;61927;50.080;14.418;2022-07-24T03:32:32;19.65;;;10.52;;
73632;SDS011;61927;50.080;14.418;2022-07-24T03:34:58;14.80;;;9.40;;
73632;SDS011;61927;50.080;14.418;2022-07-24T03:37:24;16.23;;;9.35;;
73632;SDS011;61927;50.080;14.418;2022-07-24T03:39:49;15.73;;;9.00;;
73632;SDS011;61927;50.080;14.418;2022-07-24T03:42:15;17.15;;;8.90;;
73632;SDS011;61927;50.080;14.418;2022-07-24T03:44:40;20.80;;;8.85;;
73632;SDS011;61927;50.080;14.418;2022-07-24T03:47:06;14.82;;;8.73;;
73632;SDS011;61927;50.080;14.418;2022-07-24T03:49:32;16.55;;;8.43;;
73632;SDS011;61927;50.080;14.418;2022-07-24T03:51:57;14.23;;;9.02;;
73632;SDS011;61927;50.080;14.418;2022-07-24T03:54:23;14.30;;;8.65;;
73632;SDS011;61927;50.080;14.418;2022-07-24T03:56:49;15.90;;;8.77;;
73632;SDS011;61927;50.080;14.418;2022-07-24T03:59:15;10.07;;;8.63;;
73632;SDS011;61927;50.080;14.418;2022-07-24T04:01:41;16.45;;;8.93;;
73632;SDS011;61927;50.080;14.418;2022-07-24T04:04:07;12.85;;;9.05;;
73632;SDS011;61927;50.080;14.418;2022-07-24T04:06:33;14.00;;;8.73;;
73632;SDS011;61927;50.080;14.418;2022-07-24T04:08:59;11.77;;;8.23;;
73632;SDS011;61927;50.080;14.418;2022-07-24T04:11:25;12.15;;;8.50;;
73632;SDS011;61927;50.080;14.418;2022-07-24T04:13:51;14.35;;;8.35;;
73632;SDS011;61927;50.080;14.418;2022-07-24T04:16:17;11.93;;;8.38;;
73632;SDS011;61927;50.080;14.418;2022-07-24T04:18:42;9.38;;;8.30;;
73632;SDS011;61927;50.080;14.418;2022-07-24T04:21:08;13.63;;;7.88;;
73632;SDS011;61927;50.080;14.418;2022-07-24T04:23:33;10.13;;;8.18;;
73632;SDS011;61927;50.080;14.418;2022-07-24T04:25:59;10.93;;;8.15;;
73632;SDS011;61927;50.080;14.418;2022-07-24T04:28:25;19.33;;;8.27;;
73632;SDS011;61927;50.080;14.418;2022-07-24T04:30:50;8.80;;;7.88;;
73632;SDS011;61927;50.080;14.418;2022-07-24T04:33:16;9.25;;;8.10;;
73632;SDS011;61927;50.080;14.418;2022-07-24T04:35:42;9.65;;;7.47;;
73632;SDS011;61927;50.080;14.418;2022-07-24T04:38:07;8.50;;;7.60;;
73632;SDS011;61927;50.080;14.418;2022-07-24T04:40:33;12.73;;;8.20;;
73632;SDS011;61927;50.080;14.418;2022-07-24T04:42:58;11.43;;;8.20;;
73632;SDS011;61927;50.080;14.418;2022-07-24T04:45:24;11.43;;;9.10;;
73632;SDS011;61927;50.080;14.418;2022-07-24T04:47:49;17.30;;;8.65;;
73632;SDS011;61927;50.080;14.418;2022-07-24T04:50:15;22.63;;;8.93;;
73632;SDS011;61927;50.080;14.418;2022-07-24T04:52:40;9.48;;;8.27;;
73632;SDS011;61927;50.080;14.418;2022-07-24T04:55:07;12.80;;;8.95;;
73632;SDS011;61927;50.080;14.418;2022-07-24T04:57:33;13.55;;;8.73;;
73632;SDS011;61927;50.080;14.418;2022-07-24T04:59:58;12.20;;;8.32;;
73632;SDS011;61927;50.080;14.418;2022-07-24T05:02:24;10.30;;;8.32;;
73632;SDS011;61927;50.080;14.418;2022-07-24T05:04:50;13.48;;;9.25;;
73632;SDS011;61927;50.080;14.418;2022-07-24T05:07:15;11.15;;;8.82;;
73632;SDS011;61927;50.080;14.418;2022-07-24T05:09:41;16.25;;;9.45;;
73632;SDS011;61927;50.080;14.418;2022-07-24T05:12:06;12.07;;;9.30;;
73632;SDS011;61927;50.080;14.418;2022-07-24T05:14:32;12.88;;;8.75;;
73632;SDS011;61927;50.080;14.418;2022-07-24T05:16:57;13.48;;;9.20;;
73632;SDS011;61927;50.080;14.418;2022-07-24T05:19:23;11.10;;;9.27;;
73632;SDS011;61927;50.080;14.418;2022-07-24T05:21:48;13.25;;;9.57;;
73632;SDS011;61927;50.080;14.418;2022-07-24T05:24:14;9.80;;;8.75;;
73632;SDS011;61927;50.080;14.418;2022-07-24T05:26:40;10.38;;;9.27;;
73632;SDS011;61927;50.080;14.418;2022-07-24T05:29:05;10.07;;;9.00;;
73632;SDS011;61927;50.080;14.418;2022-07-24T05:31:32;12.70;;;9.70;;
73632;SDS011;61927;50.080;14.418;2022-07-24T05:33:58;12.25;;;8.82;;
73632;SDS011;61927;50.080;14.418;2022-07-24T05:36:24;11.85;;;9.88;;
73632;SDS011;61927;50.080;14.418;2022-07-24T05:38:50;14.18;;;9.82;;
73632;SDS011;61927;50.080;14.418;2022-07-24T05:41:16;16.42;;;10.57;;
73632;SDS011;61927;50.080;14.418;2022-07-24T05:43:41;17.08;;;11.10;;
73632;SDS011;61927;50.080;14.418;2022-07-24T05:46:07;17.77;;;10.38;;
73632;SDS011;61927;50.080;14.418;2022-07-24T05:48:33;20.27;;;10.90;;
73632;SDS011;61927;50.080;14.418;2022-07-24T05:50:58;16.85;;;11.35;;
73632;SDS011;61927;50.080;14.418;2022-07-24T05:53:24;18.55;;;10.50;;
73632;SDS011;61927;50.080;14.418;2022-07-24T05:55:50;15.20;;;10.55;;
73632;SDS011;61927;50.080;14.418;2022-07-24T05:58:16;16.85;;;10.98;;
73632;SDS011;61927;50.080;14.418;2022-07-24T06:00:42;17.25;;;10.32;;
73632;SDS011;61927;50.080;14.418;2022-07-24T06:03:08;20.10;;;11.50;;
73632;SDS011;61927;50.080;14.418;2022-07-24T06:05:33;17.20;;;11.00;;
73632;SDS011;61927;50.080;14.418;2022-07-24T06:07:59;17.27;;;11.50;;
73632;SDS011;61927;50.080;14.418;2022-07-24T06:10:25;19.52;;;10.75;;
73632;SDS011;61927;50.080;14.418;2022-07-24T06:12:50;20.08;;;10.20;;
73632;SDS011;61927;50.080;14.418;2022-07-24T06:15:16;18.00;;;10.27;;
73632;SDS011;61927;50.080;14.418;2022-07-24T06:17:41;20.75;;;9.75;;
73632;SDS011;61927;50.080;14.418;2022-07-24T06:20:07;19.05;;;9.93;;
73632;SDS011;61927;50.080;14.418;2022-07-24T06:22:34;14.25;;;8.88;;
73632;SDS011;61927;50.080;14.418;2022-07-24T06:25:00;17.23;;;9.57;;
73632;SDS011;61927;50.080;14.418;2022-07-24T06:27:25;17.75;;;9.82;;
73632;SDS011;61927;50.080;14.418;2022-07-24T06:29:51;15.73;;;10.38;;
73632;SDS011;61927;50.080;14.418;2022-07-24T06:32:16;16.85;;;8.98;;
73632;SDS011;61927;50.080;14.418;2022-07-24T06:34:43;15.52;;;10.20;;
73632;SDS011;61927;50.080;14.418;2022-07-24T06:37:08;16.55;;;9.77;;
73632;SDS011;61927;50.080;14.418;2022-07-24T06:39:34;11.90;;;8.75;;
73632;SDS011;61927;50.080;14.418;2022-07-24T06:41:59;19.85;;;8.73;;
73632;SDS011;61927;50.080;14.418;2022-07-24T06:44:25;12.13;;;9.25;;
73632;SDS011;61927;50.080;14.418;2022-07-24T06:46:50;12.43;;;8.48;;
73632;SDS011;61927;50.080;14.418;2022-07-24T06:49:16;11.68;;;7.93;;
73632;SDS011;61927;50.080;14.418;2022-07-24T06:51:42;15.20;;;9.70;;
73632;SDS011;61927;50.080;14.418;2022-07-24T06:54:07;15.50;;;8.20;;
73632;SDS011;61927;50.080;14.418;2022-07-24T06:56:32;20.35;;;8.77;;
73632;SDS011;61927;50.080;14.418;2022-07-24T06:58:58;13.50;;;9.32;;
73632;SDS011;61927;50.080;14.418;2022-07-24T07:01:25;13.73;;;8.73;;
73632;SDS011;61927;50.080;14.418;2022-07-24T07:03:54;13.32;;;8.55;;
73632;SDS011;61927;50.080;14.418;2022-07-24T07:06:20;13.00;;;8.07;;
73632;SDS011;61927;50.080;14.418;2022-07-24T07:08:46;17.58;;;10.27;;
73632;SDS011;61927;50.080;14.418;2022-07-24T07:11:11;7.22;;;5.32;;
73632;SDS011;61927;50.080;14.418;2022-07-24T07:13:37;6.80;;;5.43;;
73632;SDS011;61927;50.080;14.418;2022-07-24T07:16:02;7.63;;;5.43;;
73632;SDS011;61927;50.080;14.418;2022-07-24T07:18:28;8.77;;;5.72;;
73632;SDS011;61927;50.080;14.418;2022-07-24T07:20:54;10.63;;;5.03;;
73632;SDS011;61927;50.080;14.418;2022-07-24T07:23:23;7.47;;;4.30;;
73632;SDS011;61927;50.080;14.418;2022-07-24T07:25:51;10.43;;;4.07;;
73632;SDS011;61927;50.080;14.418;2022-07-24T07:28:19;7.85;;;4.30;;
73632;SDS011;61927;50.080;14.418;2022-07-24T07:30:44;8.25;;;4.88;;
73632;SDS011;61927;50.080;14.418;2022-07-24T07:33:10;8.63;;;5.45;;
73632;SDS011;61927;50.080;14.418;2022-07-24T07:35:35;63.03;;;11.15;;
73632;SDS011;61927;50.080;14.418;2022-07-24T07:38:01;9.77;;;5.32;;
73632;SDS011;61927;50.080;14.418;2022-07-24T07:40:27;11.25;;;5.68;;
73632;SDS011;61927;50.080;14.418;2022-07-24T07:42:53;16.70;;;5.50;;
73632;SDS011;61927;50.080;14.418;2022-07-24T07:45:18;10.98;;;4.80;;
73632;SDS011;61927;50.080;14.418;2022-07-24T07:47:43;28.92;;;16.15;;
73632;SDS011;61927;50.080;14.418;2022-07-24T07:50:09;10.25;;;7.85;;
73632;SDS011;61927;50.080;14.418;2022-07-24T07:52:35;9.73;;;5.35;;
73632;SDS011;61927;50.080;14.418;2022-07-24T07:55:01;5.90;;;4.50;;
73632;SDS011;61927;50.080;14.418;2022-07-24T07:57:26;13.32;;;4.75;;
73632;SDS011;61927;50.080;14.418;2022-07-24T07:59:52;16.92;;;4.00;;
73632;SDS011;61927;50.080;14.418;2022-07-24T08:02:17;6.18;;;3.60;;
73632;SDS011;61927;50.080;14.418;2022-07-24T08:04:43;7.50;;;4.22;;
73632;SDS011;61927;50.080;14.418;2022-07-24T08:07:08;7.28;;;3.63;;
73632;SDS011;61927;50.080;14.418;2022-07-24T08:09:34;4.22;;;3.72;;
73632;SDS011;61927;50.080;14.418;2022-07-24T08:11:59;6.10;;;3.30;;
73632;SDS011;61927;50.080;14.418;2022-07-24T08:14:25;16.58;;;8.00;;
73632;SDS011;61927;50.080;14.418;2022-07-24T08:16:51;14.77;;;5.10;;
73632;SDS011;61927;50.080;14.418;2022-07-24T08:19:16;77.45;;;7.25;;
73632;SDS011;61927;50.080;14.418;2022-07-24T08:21:42;2.72;;;2.50;;
73632;SDS011;61927;50.080;14.418;2022-07-24T08:24:07;5.13;;;3.08;;
73632;SDS011;61927;50.080;14.418;2022-07-24T08:26:33;4.55;;;2.47;;
73632;SDS011;61927;50.080;14.418;2022-07-24T08:28:58;6.68;;;2.90;;
73632;SDS011;61927;50.080;14.418;2022-07-24T08:31:27;9.27;;;3.05;;
73632;SDS011;61927;50.080;14.418;2022-07-24T08:33:53;4.60;;;2.67;;
73632;SDS011;61927;50.080;14.418;2022-07-24T08:36:19;5.90;;;3.83;;
73632;SDS011;61927;50.080;14.418;2022-07-24T08:38:44;10.30;;;4.43;;
73632;SDS011;61927;50.080;14.418;2022-07-24T08:41:10;9.80;;;3.78;;
73632;SDS011;61927;50.080;14.418;2022-07-24T08:43:37;4.93;;;3.85;;
73632;SDS011;61927;50.080;14.418;2022-07-24T08:46:03;8.13;;;3.80;;
73632;SDS011;61927;50.080;14.418;2022-07-24T08:48:29;3.63;;;3.28;;
73632;SDS011;61927;50.080;14.418;2022-07-24T08:50:56;10.85;;;3.90;;
73632;SDS011;61927;50.080;14.418;2022-07-24T08:53:23;12.60;;;3.83;;
73632;SDS011;61927;50.080;14.418;2022-07-24T08:55:49;8.23;;;3.42;;
73632;SDS011;61927;50.080;14.418;2022-07-24T08:58:14;4.45;;;3.92;;
73632;SDS011;61927;50.080;14.418;2022-07-24T09:00:40;15.07;;;3.70;;
73632;SDS011;61927;50.080;14.418;2022-07-24T09:03:06;5.65;;;3.70;;
73632;SDS011;61927;50.080;14.418;2022-07-24T09:05:33;16.70;;;9.25;;
73632;SDS011;61927;50.080;14.418;2022-07-24T09:08:10;7.40;;;3.95;;
73632;SDS011;61927;50.080;14.418;2022-07-24T09:10:36;4.75;;;3.35;;
73632;SDS011;61927;50.080;14.418;2022-07-24T09:13:15;7.60;;;3.17;;
73632;SDS011;61927;50.080;14.418;2022-07-24T09:15:45;13.55;;;3.45;;
73632;SDS011;61927;50.080;14.418;2022-07-24T09:18:24;4.53;;;3.70;;
73632;SDS011;61927;50.080;14.418;2022-07-24T09:20:55;6.32;;;4.63;;
73632;SDS011;61927;50.080;14.418;2022-07-24T09:23:21;4.68;;;4.15;;
73632;SDS011;61927;50.080;14.418;2022-07-24T09:25:50;15.75;;;6.00;;
73632;SDS011;61927;50.080;14.418;2022-07-24T09:28:17;11.60;;;7.63;;
73632;SDS011;61927;50.080;14.418;2022-07-24T09:30:44;5.93;;;4.05;;
73632;SDS011;61927;50.080;14.418;2022-07-24T09:35:38;9.95;;;5.85;;
73632;SDS011;61927;50.080;14.418;2022-07-24T09:38:10;9.80;;;6.00;;
73632;SDS011;61927;50.080;14.418;2022-07-24T09:40:44;5.82;;;3.63;;
73632;SDS011;61927;50.080;14.418;2022-07-24T09:45:50;5.88;;;3.17;;
73632;SDS011;61927;50.080;14.418;2022-07-24T09:48:29;6.90;;;3.90;;
73632;SDS011;61927;50.080;14.418;2022-07-24T09:50:57;16.30;;;5.25;;
73632;SDS011;61927;50.080;14.418;2022-07-24T09:53:25;7.93;;;3.90;;
73632;SDS011;61927;50.080;14.418;2022-07-24T09:55:56;13.88;;;4.05;;
73632;SDS011;61927;50.080;14.418;2022-07-24T09:58:23;12.98;;;9.88;;
73632;SDS011;61927;50.080;14.418;2022-07-24T10:00:49;9.43;;;4.45;;
73632;SDS011;61927;50.080;14.418;2022-07-24T10:03:16;6.53;;;4.10;;
73632;SDS011;61927;50.080;14.418;2022-07-24T10:05:43;7.70;;;4.13;;
73632;SDS011;61927;50.080;14.418;2022-07-24T10:08:11;10.30;;;3.72;;
73632;SDS011;61927;50.080;14.418;2022-07-24T10:10:41;11.00;;;5.47;;
73632;SDS011;61927;50.080;14.418;2022-07-24T10:13:07;8.52;;;5.63;;
73632;SDS011;61927;50.080;14.418;2022-07-24T10:15:33;7.90;;;3.90;;
73632;SDS011;61927;50.080;14.418;2022-07-24T10:18:13;13.05;;;4.13;;
73632;SDS011;61927;50.080;14.418;2022-07-24T10:20:41;10.07;;;7.15;;
73632;SDS011;61927;50.080;14.418;2022-07-24T10:23:08;10.32;;;4.80;;
73632;SDS011;61927;50.080;14.418;2022-07-24T10:25:53;8.48;;;3.55;;
73632;SDS011;61927;50.080;14.418;2022-07-24T10:28:39;6.88;;;3.20;;
73632;SDS011;61927;50.080;14.418;2022-07-24T10:31:09;6.55;;;3.22;;
73632;SDS011;61927;50.080;14.418;2022-07-24T10:33:39;6.32;;;3.30;;
73632;SDS011;61927;50.080;14.418;2022-07-24T10:36:25;4.45;;;4.05;;
73632;SDS011;61927;50.080;14.418;2022-07-24T10:38:57;5.88;;;3.85;;
73632;SDS011;61927;50.080;14.418;2022-07-24T10:41:31;7.53;;;3.42;;
73632;SDS011;61927;50.080;14.418;2022-07-24T10:44:16;5.20;;;4.15;;
73632;SDS011;61927;50.080;14.418;2022-07-24T10:47:06;3.80;;;3.40;;
73632;SDS011;61927;50.080;14.418;2022-07-24T10:49:49;6.00;;;4.40;;
73632;SDS011;61927;50.080;14.418;2022-07-24T10:55:18;8.77;;;4.40;;
73632;SDS011;61927;50.080;14.418;2022-07-24T11:00:20;9.40;;;4.88;;
73632;SDS011;61927;50.080;14.418;2022-07-24T11:02:54;13.63;;;3.67;;
73632;SDS011;61927;50.080;14.418;2022-07-24T11:05:29;4.68;;;3.33;;
73632;SDS011;61927;50.080;14.418;2022-07-24T11:10:50;5.20;;;4.68;;
73632;SDS011;61927;50.080;14.418;2022-07-24T11:18:40;5.40;;;4.07;;
73632;SDS011;61927;50.080;14.418;2022-07-24T11:26:54;7.18;;;3.30;;
73632;SDS011;61927;50.080;14.418;2022-07-24T11:29:24;4.10;;;3.30;;
73632;SDS011;61927;50.080;14.418;2022-07-24T11:31:56;5.72;;;3.67;;
73632;SDS011;61927;50.080;14.418;2022-07-24T11:34:23;3.75;;;2.90;;
73632;SDS011;61927;50.080;14.418;2022-07-24T11:36:49;5.13;;;3.47;;
73632;SDS011;61927;50.080;14.418;2022-07-24T11:39:17;4.03;;;3.53;;
73632;SDS011;61927;50.080;14.418;2022-07-24T11:41:45;6.95;;;3.60;;
73632;SDS011;61927;50.080;14.418;2022-07-24T11:44:12;7.78;;;3.40;;
73632;SDS011;61927;50.080;14.418;2022-07-24T11:46:39;6.53;;;3.08;;
73632;SDS011;61927;50.080;14.418;2022-07-24T11:49:07;7.32;;;3.47;;
73632;SDS011;61927;50.080;14.418;2022-07-24T11:51:43;6.25;;;3.72;;
73632;SDS011;61927;50.080;14.418;2022-07-24T11:54:10;10.85;;;4.10;;
73632;SDS011;61927;50.080;14.418;2022-07-24T11:56:37;9.68;;;4.22;;
73632;SDS011;61927;50.080;14.418;2022-07-24T11:59:03;6.22;;;3.40;;
73632;SDS011;61927;50.080;14.418;2022-07-24T12:01:29;4.22;;;3.20;;
73632;SDS011;61927;50.080;14.418;2022-07-24T12:03:56;3.80;;;3.17;;
73632;SDS011;61927;50.080;14.418;2022-07-24T12:06:23;4.47;;;2.97;;
73632;SDS011;61927;50.080;14.418;2022-07-24T12:08:49;6.50;;;3.40;;
73632;SDS011;61927;50.080;14.418;2022-07-24T12:11:21;8.82;;;3.65;;
73632;SDS011;61927;50.080;14.418;2022-07-24T12:13:47;11.30;;;3.20;;
73632;SDS011;61927;50.080;14.418;2022-07-24T12:16:23;4.43;;;3.10;;
73632;SDS011;61927;50.080;14.418;2022-07-24T12:19:10;14.35;;;3.47;;
73632;SDS011;61927;50.080;14.418;2022-07-24T12:21:53;5.07;;;3.17;;
73632;SDS011;61927;50.080;14.418;2022-07-24T12:24:19;3.28;;;2.97;;
73632;SDS011;61927;50.080;14.418;2022-07-24T12:26:54;12.68;;;3.20;;
73632;SDS011;61927;50.080;14.418;2022-07-24T12:29:22;7.65;;;3.90;;
73632;SDS011;61927;50.080;14.418;2022-07-24T12:31:52;3.95;;;3.10;;
73632;SDS011;61927;50.080;14.418;2022-07-24T12:34:44;2.95;;;2.75;;
73632;SDS011;61927;50.080;14.418;2022-07-24T12:37:18;7.10;;;3.67;;
73632;SDS011;61927;50.080;14.418;2022-07-24T12:39:52;12.02;;;3.03;;
73632;SDS011;61927;50.080;14.418;2022-07-24T12:44:54;4.28;;;3.20;;
73632;SDS011;61927;50.080;14.418;2022-07-24T12:47:19;9.88;;;3.42;;
73632;SDS011;61927;50.080;14.418;2022-07-24T12:49:45;4.25;;;3.03;;
73632;SDS011;61927;50.080;14.418;2022-07-24T12:52:19;4.78;;;2.63;;
73632;SDS011;61927;50.080;14.418;2022-07-24T12:54:47;9.15;;;3.00;;
73632;SDS011;61927;50.080;14.418;2022-07-24T12:57:13;7.30;;;5.45;;
73632;SDS011;61927;50.080;14.418;2022-07-24T12:59:40;8.23;;;3.47;;
73632;SDS011;61927;50.080;14.418;2022-07-24T13:02:11;6.97;;;3.10;;
73632;SDS011;61927;50.080;14.418;2022-07-24T13:04:41;9.20;;;2.97;;
73632;SDS011;61927;50.080;14.418;2022-07-24T13:07:15;3.05;;;2.85;;
73632;SDS011;61927;50.080;14.418;2022-07-24T13:09:43;14.75;;;3.30;;
73632;SDS011;61927;50.080;14.418;2022-07-24T13:12:09;8.13;;;3.85;;
73632;SDS011;61927;50.080;14.418;2022-07-24T13:14:36;5.63;;;2.95;;
73632;SDS011;61927;50.080;14.418;2022-07-24T13:19:35;13.30;;;3.50;;
73632;SDS011;61927;50.080;14.418;2022-07-24T13:22:02;5.55;;;3.20;;
73632;SDS011;61927;50.080;14.418;2022-07-24T13:24:28;7.63;;;3.97;;
73632;SDS011;61927;50.080;14.418;2022-07-24T13:26:54;10.60;;;3.97;;
73632;SDS011;61927;50.080;14.418;2022-07-24T13:29:21;9.20;;;3.20;;
73632;SDS011;61927;50.080;14.418;2022-07-24T13:31:47;10.55;;;3.03;;
73632;SDS011;61927;50.080;14.418;2022-07-24T13:34:12;8.10;;;2.90;;
73632;SDS011;61927;50.080;14.418;2022-07-24T13:36:38;3.75;;;2.72;;
73632;SDS011;61927;50.080;14.418;2022-07-24T13:39:04;6.00;;;3.15;;
73632;SDS011;61927;50.080;14.418;2022-07-24T13:41:31;7.10;;;2.97;;
73632;SDS011;61927;50.080;14.418;2022-07-24T13:43:57;3.63;;;2.88;;
73632;SDS011;61927;50.080;14.418;2022-07-24T13:46:22;7.30;;;2.95;;
73632;SDS011;61927;50.080;14.418;2022-07-24T13:48:48;12.38;;;3.78;;
73632;SDS011;61927;50.080;14.418;2022-07-24T13:51:15;11.70;;;4.15;;
73632;SDS011;61927;50.080;14.418;2022-07-24T13:53:40;7.90;;;2.90;;
73632;SDS011;61927;50.080;14.418;2022-07-24T13:56:06;7.32;;;2.70;;
73632;SDS011;61927;50.080;14.418;2022-07-24T13:58:33;7.75;;;2.90;;
73632;SDS011;61927;50.080;14.418;2022-07-24T14:01:04;6.32;;;2.90;;
73632;SDS011;61927;50.080;14.418;2022-07-24T14:03:30;8.90;;;3.10;;
73632;SDS011;61927;50.080;14.418;2022-07-24T14:05:56;6.88;;;3.20;;
73632;SDS011;61927;50.080;14.418;2022-07-24T14:08:22;5.57;;;2.67;;
73632;SDS011;61927;50.080;14.418;2022-07-24T14:10:48;8.93;;;2.92;;
73632;SDS011;61927;50.080;14.418;2022-07-24T14:13:14;11.55;;;3.05;;
73632;SDS011;61927;50.080;14.418;2022-07-24T14:15:39;10.18;;;3.40;;
73632;SDS011;61927;50.080;14.418;2022-07-24T14:18:05;14.07;;;3.30;;
73632;SDS011;61927;50.080;14.418;2022-07-24T14:20:31;6.10;;;2.80;;
73632;SDS011;61927;50.080;14.418;2022-07-24T14:22:56;3.83;;;3.05;;
73632;SDS011;61927;50.080;14.418;2022-07-24T14:25:22;6.72;;;3.25;;
73632;SDS011;61927;50.080;14.418;2022-07-24T14:27:47;6.88;;;3.95;;
73632;SDS011;61927;50.080;14.418;2022-07-24T14:30:13;7.10;;;2.63;;
73632;SDS011;61927;50.080;14.418;2022-07-24T14:32:39;4.38;;;2.63;;
73632;SDS011;61927;50.080;14.418;2022-07-24T14:35:06;2.67;;;2.47;;
73632;SDS011;61927;50.080;14.418;2022-07-24T14:37:35;18.35;;;3.40;;
73632;SDS011;61927;50.080;14.418;2022-07-24T14:40:02;5.20;;;2.70;;
73632;SDS011;61927;50.080;14.418;2022-07-24T14:42:30;3.80;;;2.78;;
73632;SDS011;61927;50.080;14.418;2022-07-24T14:44:56;8.68;;;3.28;;
73632;SDS011;61927;50.080;14.418;2022-07-24T14:47:21;3.97;;;3.20;;
73632;SDS011;61927;50.080;14.418;2022-07-24T14:49:48;5.78;;;3.00;;
73632;SDS011;61927;50.080;14.418;2022-07-24T14:52:13;13.27;;;3.90;;